createdAt,value
2017-10-08T00:00:47.314Z,3.60
2017-10-08T00:03:16.371Z,3.47
2017-10-08T00:05:45.478Z,2.60
2017-10-08T00:08:13.755Z,2.30
2017-10-08T00:10:41.996Z,3.80
2017-10-08T00:13:11.020Z,3.10
2017-10-08T00:15:39.258Z,2.50
2017-10-08T00:18:08.290Z,2.07
2017-10-08T00:20:36.533Z,2.20
2017-10-08T00:23:06.306Z,3.00
2017-10-08T00:25:34.556Z,4.33
2017-10-08T00:28:03.590Z,5.33
2017-10-08T00:30:31.840Z,4.07
2017-10-08T00:33:00.079Z,7.10
2017-10-08T00:35:28.347Z,2.93
2017-10-08T00:37:56.609Z,2.40
2017-10-08T00:40:24.870Z,2.90
2017-10-08T00:42:53.119Z,4.03
2017-10-08T00:45:22.138Z,1.60
2017-10-08T00:47:50.441Z,2.57
2017-10-08T00:50:18.701Z,2.37
2017-10-08T00:52:47.010Z,2.70
2017-10-08T00:55:15.285Z,2.10
2017-10-08T00:57:43.562Z,4.97
2017-10-08T01:00:11.845Z,1.37
2017-10-08T01:02:40.083Z,1.90
2017-10-08T01:05:09.105Z,1.77
2017-10-08T01:07:37.410Z,2.87
2017-10-08T01:10:05.705Z,2.10
2017-10-08T01:12:33.976Z,1.87
2017-10-08T01:15:02.251Z,1.83
2017-10-08T01:17:30.529Z,1.60
2017-10-08T01:19:58.803Z,1.77
2017-10-08T01:22:27.057Z,1.60
2017-10-08T01:24:55.402Z,1.90
2017-10-08T01:27:23.676Z,2.10
2017-10-08T01:29:51.971Z,1.97
2017-10-08T01:32:20.279Z,2.10
2017-10-08T01:34:49.521Z,4.77
2017-10-08T01:37:17.812Z,2.20
2017-10-08T01:39:46.085Z,3.27
2017-10-08T01:42:14.356Z,2.47
2017-10-08T01:44:42.655Z,3.17
2017-10-08T01:47:10.926Z,2.53
2017-10-08T01:49:39.214Z,1.77
2017-10-08T01:52:07.470Z,1.20
2017-10-08T01:54:35.783Z,1.60
2017-10-08T01:57:04.060Z,1.23
2017-10-08T01:59:32.349Z,1.77
2017-10-08T02:02:00.621Z,1.40
2017-10-08T02:04:28.872Z,2.70
2017-10-08T02:06:57.912Z,1.30
2017-10-08T02:09:26.139Z,1.73
2017-10-08T02:11:55.174Z,2.20
2017-10-08T02:14:23.417Z,1.13
2017-10-08T02:16:52.458Z,1.20
2017-10-08T02:19:20.744Z,1.73
2017-10-08T02:21:49.023Z,1.30
2017-10-08T02:24:17.275Z,1.13
2017-10-08T02:26:45.530Z,1.80
2017-10-08T02:29:14.580Z,0.80
2017-10-08T02:31:42.861Z,1.37
2017-10-08T02:34:11.111Z,1.50
2017-10-08T02:36:40.242Z,1.37
2017-10-08T02:39:08.526Z,1.47
2017-10-08T02:41:36.815Z,1.13
2017-10-08T02:44:05.086Z,0.97
2017-10-08T02:46:33.351Z,0.90
2017-10-08T02:49:01.654Z,0.90
2017-10-08T02:51:30.038Z,1.00
2017-10-08T02:53:58.287Z,0.70
2017-10-08T02:56:26.526Z,0.50
2017-10-08T02:58:54.873Z,1.30
2017-10-08T03:01:23.117Z,0.70
2017-10-08T03:03:51.386Z,0.60
2017-10-08T03:06:19.710Z,0.70
2017-10-08T03:08:47.977Z,2.77
2017-10-08T03:11:16.222Z,1.27
2017-10-08T03:13:44.551Z,0.70
2017-10-08T03:16:12.789Z,2.30
2017-10-08T03:18:41.818Z,1.07
2017-10-08T03:21:10.067Z,0.80
2017-10-08T03:23:39.086Z,1.00
2017-10-08T03:26:07.340Z,0.70
2017-10-08T03:28:35.599Z,1.30
2017-10-08T03:31:03.848Z,0.80
2017-10-08T03:33:32.098Z,0.70
2017-10-08T03:36:01.111Z,0.87
2017-10-08T03:38:29.370Z,2.00
2017-10-08T03:40:58.415Z,1.00
2017-10-08T03:43:26.692Z,1.07
2017-10-08T03:45:54.970Z,0.70
2017-10-08T03:48:23.230Z,0.80
2017-10-08T03:50:51.474Z,0.70
2017-10-08T03:53:19.819Z,1.27
2017-10-08T03:55:48.066Z,4.13
2017-10-08T03:58:17.099Z,0.90
2017-10-08T04:00:45.338Z,0.83
2017-10-08T04:03:14.372Z,0.83
2017-10-08T04:05:42.609Z,0.67
2017-10-08T04:08:12.150Z,0.63
2017-10-08T04:10:40.414Z,0.70
2017-10-08T04:13:09.418Z,1.47
2017-10-08T04:15:37.680Z,1.30
2017-10-08T04:18:06.697Z,0.80
2017-10-08T04:20:34.954Z,1.47
2017-10-08T04:23:03.972Z,2.40
2017-10-08T04:25:33.100Z,0.77
2017-10-08T04:28:01.378Z,1.00
2017-10-08T04:30:29.654Z,2.30
2017-10-08T04:32:57.936Z,1.00
2017-10-08T04:35:26.194Z,0.80
2017-10-08T04:37:54.498Z,0.70
2017-10-08T04:40:22.821Z,0.83
2017-10-08T04:42:51.042Z,1.03
2017-10-08T04:45:19.302Z,1.10
2017-10-08T04:47:48.318Z,1.20
2017-10-08T04:50:16.617Z,0.83
2017-10-08T04:52:44.867Z,1.17
2017-10-08T04:55:13.885Z,1.20
2017-10-08T04:57:42.238Z,1.73
2017-10-08T05:00:10.511Z,0.70
2017-10-08T05:02:38.763Z,0.93
2017-10-08T05:05:07.022Z,1.03
2017-10-08T05:07:35.310Z,0.80
2017-10-08T05:10:03.590Z,0.70
2017-10-08T05:12:31.830Z,0.93
2017-10-08T05:15:00.859Z,1.27
2017-10-08T05:17:29.192Z,0.70
2017-10-08T05:19:57.442Z,1.03
2017-10-08T05:22:25.698Z,1.50
2017-10-08T05:24:54.003Z,0.77
2017-10-08T05:27:22.279Z,0.90
2017-10-08T05:29:50.528Z,0.97
2017-10-08T05:32:20.278Z,1.13
2017-10-08T05:34:48.523Z,0.70
2017-10-08T05:37:17.551Z,1.07
2017-10-08T05:39:45.798Z,1.83
2017-10-08T05:42:14.822Z,1.23
2017-10-08T05:44:43.072Z,1.50
2017-10-08T05:47:12.128Z,1.40
2017-10-08T05:49:40.371Z,3.33
2017-10-08T05:52:08.633Z,2.20
2017-10-08T05:54:37.646Z,1.40
2017-10-08T05:57:06.667Z,1.43
2017-10-08T05:59:34.919Z,1.87
2017-10-08T06:02:03.938Z,2.10
2017-10-08T06:04:32.187Z,4.33
2017-10-08T06:07:01.239Z,7.20
2017-10-08T06:09:29.486Z,3.37
2017-10-08T06:11:57.799Z,3.20
2017-10-08T06:14:26.044Z,3.23
2017-10-08T06:16:55.074Z,3.17
2017-10-08T06:19:23.317Z,2.03
2017-10-08T06:21:52.365Z,1.90
2017-10-08T06:24:20.631Z,1.53
2017-10-08T06:26:48.879Z,1.73
2017-10-08T06:29:17.143Z,1.70
2017-10-08T06:31:46.153Z,5.67
2017-10-08T06:34:14.474Z,8.50
2017-10-08T06:36:42.745Z,2.13
2017-10-08T06:39:11.342Z,2.83
2017-10-08T06:41:39.589Z,3.37
2017-10-08T06:44:08.619Z,1.40
2017-10-08T06:46:36.938Z,3.30
2017-10-08T06:49:05.174Z,1.73
2017-10-08T06:51:33.459Z,1.97
2017-10-08T06:54:01.721Z,1.80
2017-10-08T06:56:30.025Z,1.90
2017-10-08T06:58:58.283Z,1.70
2017-10-08T07:01:26.629Z,5.03
2017-10-08T07:03:54.890Z,5.53
2017-10-08T07:06:23.253Z,6.03
2017-10-08T07:08:51.510Z,5.03
2017-10-08T07:11:20.287Z,4.03
2017-10-08T07:13:48.850Z,3.97
2017-10-08T07:16:17.857Z,2.50
2017-10-08T07:18:46.903Z,2.50
2017-10-08T07:21:15.146Z,1.47
2017-10-08T07:23:44.170Z,2.00
2017-10-08T07:26:12.438Z,2.03
2017-10-08T07:28:40.695Z,2.10
2017-10-08T07:31:09.700Z,2.00
2017-10-08T07:33:38.714Z,5.10
2017-10-08T07:36:06.984Z,2.80
2017-10-08T07:38:36.020Z,1.87
2017-10-08T07:41:04.259Z,1.97
2017-10-08T07:43:33.281Z,3.07
2017-10-08T07:46:01.566Z,1.77
2017-10-08T07:48:29.802Z,2.43
2017-10-08T07:50:58.851Z,6.50
2017-10-08T07:53:27.090Z,4.27
2017-10-08T07:55:56.118Z,1.80
2017-10-08T07:58:24.363Z,2.53
2017-10-08T08:00:53.389Z,2.90
2017-10-08T08:03:21.632Z,3.90
2017-10-08T08:05:50.662Z,2.30
2017-10-08T08:08:18.966Z,2.10
2017-10-08T08:10:47.225Z,2.97
2017-10-08T08:13:25.161Z,3.63
2017-10-08T08:15:53.441Z,2.30
2017-10-08T08:18:21.722Z,4.47
2017-10-08T08:20:49.984Z,2.80
2017-10-08T08:23:18.222Z,3.57
2017-10-08T08:25:46.487Z,3.30
2017-10-08T08:28:14.727Z,8.60
2017-10-08T08:30:43.019Z,2.63
2017-10-08T08:33:11.314Z,2.60
2017-10-08T08:35:39.619Z,3.20
2017-10-08T08:38:07.831Z,8.97
2017-10-08T08:40:36.854Z,5.60
2017-10-08T08:43:05.138Z,2.40
2017-10-08T08:45:33.439Z,2.27
2017-10-08T08:48:01.678Z,3.60
2017-10-08T08:50:30.798Z,7.63
2017-10-08T08:52:59.040Z,4.23
2017-10-08T08:55:28.213Z,5.37
2017-10-08T08:57:56.462Z,6.07
2017-10-08T09:00:24.701Z,3.80
2017-10-08T09:02:52.969Z,3.57
2017-10-08T09:05:21.209Z,4.40
2017-10-08T09:07:49.486Z,7.70
2017-10-08T09:10:17.729Z,3.90
2017-10-08T09:12:46.749Z,2.83
2017-10-08T09:15:15.006Z,4.73
2017-10-08T09:17:44.027Z,3.43
2017-10-08T09:20:12.271Z,3.63
2017-10-08T09:22:40.523Z,2.50
2017-10-08T09:25:08.787Z,2.03
2017-10-08T09:27:37.038Z,2.27
2017-10-08T09:30:06.042Z,9.80
2017-10-08T09:32:34.308Z,8.67
2017-10-08T09:35:03.314Z,3.97
2017-10-08T09:37:31.656Z,3.33
2017-10-08T09:39:59.940Z,3.43
2017-10-08T09:42:28.205Z,4.50
2017-10-08T09:44:56.567Z,2.73
2017-10-08T09:47:24.823Z,5.30
2017-10-08T09:49:53.846Z,5.10
2017-10-08T09:52:22.102Z,4.93
2017-10-08T09:54:51.107Z,4.23
2017-10-08T09:57:19.357Z,2.93
2017-10-08T09:59:47.736Z,3.00
2017-10-08T10:02:16.178Z,5.67
2017-10-08T10:04:46.493Z,3.13
2017-10-08T10:07:15.833Z,3.90
2017-10-08T10:09:44.073Z,3.93
2017-10-08T10:12:13.107Z,2.33
2017-10-08T10:14:41.338Z,5.80
2017-10-08T10:17:10.350Z,4.80
2017-10-08T10:19:39.370Z,4.10
2017-10-08T10:22:07.619Z,5.07
2017-10-08T10:24:36.866Z,3.60
2017-10-08T10:27:05.151Z,1.97
2017-10-08T10:29:33.402Z,2.20
2017-10-08T10:32:01.646Z,3.93
2017-10-08T10:34:31.416Z,4.83
2017-10-08T10:36:59.712Z,7.43
2017-10-08T10:39:27.983Z,2.20
2017-10-08T10:41:56.222Z,4.10
2017-10-08T10:44:24.550Z,2.43
2017-10-08T10:46:52.841Z,3.73
2017-10-08T10:49:21.114Z,3.00
2017-10-08T10:51:49.403Z,3.53
2017-10-08T10:54:17.674Z,2.20
2017-10-08T10:56:45.919Z,2.10
2017-10-08T10:59:15.069Z,2.30
2017-10-08T11:01:43.295Z,1.63
2017-10-08T11:04:12.331Z,2.67
2017-10-08T11:06:40.574Z,2.17
2017-10-08T11:09:09.642Z,4.30
2017-10-08T11:11:37.877Z,1.50
2017-10-08T11:14:06.135Z,2.30
2017-10-08T11:16:34.386Z,3.23
2017-10-08T11:19:02.661Z,2.60
2017-10-08T11:21:30.927Z,2.70
2017-10-08T11:23:59.175Z,3.40
2017-10-08T11:26:28.190Z,1.80
2017-10-08T11:28:56.447Z,2.70
2017-10-08T11:31:25.459Z,5.63
2017-10-08T11:33:53.702Z,5.70
2017-10-08T11:36:23.495Z,5.70
2017-10-08T11:38:51.730Z,7.10
2017-10-08T11:41:20.754Z,5.30
2017-10-08T11:43:49.525Z,5.50
2017-10-08T11:46:18.554Z,5.97
2017-10-08T11:48:46.833Z,4.93
2017-10-08T11:51:15.109Z,4.90
2017-10-08T11:53:43.353Z,4.70
2017-10-08T11:56:12.615Z,6.07
2017-10-08T11:58:40.903Z,4.87
2017-10-08T12:01:09.154Z,4.90
2017-10-08T12:03:37.389Z,4.43
2017-10-08T12:06:05.738Z,4.80
2017-10-08T12:08:33.976Z,6.10
2017-10-08T12:11:02.993Z,2.93
2017-10-08T12:13:31.245Z,4.47
2017-10-08T12:15:59.522Z,5.53
2017-10-08T12:18:28.525Z,3.17
2017-10-08T12:20:57.546Z,4.60
2017-10-08T12:23:25.798Z,3.60
2017-10-08T12:25:54.140Z,5.17
2017-10-08T12:28:22.413Z,3.50
2017-10-08T12:30:50.694Z,4.43
2017-10-08T12:33:18.931Z,3.93
2017-10-08T12:35:47.968Z,3.20
2017-10-08T12:38:16.233Z,5.73
2017-10-08T12:40:44.525Z,4.83
2017-10-08T12:43:12.779Z,5.53
2017-10-08T12:45:41.800Z,4.80
2017-10-08T12:48:10.058Z,8.00
2017-10-08T12:50:39.059Z,3.80
2017-10-08T12:53:08.083Z,3.63
2017-10-08T12:55:36.324Z,3.80
2017-10-08T12:58:04.650Z,5.13
2017-10-08T13:00:32.942Z,4.03
2017-10-08T13:03:01.195Z,4.07
2017-10-08T13:05:29.493Z,3.97
2017-10-08T13:07:57.747Z,3.80
2017-10-08T13:10:26.747Z,4.90
2017-10-08T13:12:55.775Z,3.83
2017-10-08T13:15:24.023Z,3.90
2017-10-08T13:17:53.043Z,6.30
2017-10-08T13:20:21.318Z,24.57
2017-10-08T13:22:49.592Z,27.87
2017-10-08T13:25:17.843Z,16.13
2017-10-08T13:27:46.889Z,30.10
2017-10-08T13:30:15.149Z,11.73
2017-10-08T13:32:43.415Z,12.83
2017-10-08T13:35:12.456Z,14.00
2017-10-08T13:37:40.714Z,6.73
2017-10-08T13:40:09.033Z,7.90
2017-10-08T13:42:37.326Z,6.20
2017-10-08T13:45:05.568Z,6.13
2017-10-08T13:47:33.900Z,5.10
2017-10-08T13:50:02.200Z,4.80
2017-10-08T13:52:30.646Z,4.83
2017-10-08T13:54:59.702Z,5.70
2017-10-08T13:57:27.946Z,4.73
2017-10-08T13:59:57.709Z,7.80
2017-10-08T14:02:26.020Z,5.97
2017-10-08T14:04:54.277Z,3.97
2017-10-08T14:07:22.565Z,6.30
2017-10-08T14:09:50.839Z,4.13
2017-10-08T14:12:19.134Z,3.13
2017-10-08T14:14:47.401Z,5.63
2017-10-08T14:17:15.653Z,6.13
2017-10-08T14:19:44.731Z,3.20
2017-10-08T14:22:12.968Z,4.17
2017-10-08T14:24:41.224Z,3.50
2017-10-08T14:27:10.227Z,3.00
2017-10-08T14:29:38.529Z,2.90
2017-10-08T14:32:06.767Z,3.93
2017-10-08T14:34:35.787Z,3.17
2017-10-08T14:37:04.036Z,2.77
2017-10-08T14:39:32.308Z,3.67
2017-10-08T14:42:00.548Z,2.30
2017-10-08T14:44:28.803Z,4.67
2017-10-08T14:46:57.111Z,2.10
2017-10-08T14:49:26.139Z,2.20
2017-10-08T14:51:54.385Z,2.50
2017-10-08T14:54:22.678Z,3.13
2017-10-08T14:56:50.917Z,2.53
2017-10-08T14:59:20.148Z,2.60
2017-10-08T15:01:48.411Z,1.70
2017-10-08T15:04:17.407Z,2.53
2017-10-08T15:06:45.662Z,4.10
2017-10-08T15:09:13.898Z,2.27
2017-10-08T15:11:42.154Z,2.40
2017-10-08T15:14:10.396Z,2.10
2017-10-08T15:16:38.699Z,2.77
2017-10-08T15:19:07.712Z,2.00
2017-10-08T15:21:36.736Z,4.90
2017-10-08T15:24:04.973Z,2.10
2017-10-08T15:26:34.194Z,2.30
2017-10-08T15:29:03.211Z,1.80
2017-10-08T15:31:31.466Z,3.30
2017-10-08T15:34:00.502Z,2.20
2017-10-08T15:36:28.763Z,2.90
2017-10-08T15:38:57.068Z,2.20
2017-10-08T15:41:25.588Z,2.43
2017-10-08T15:43:53.840Z,3.00
2017-10-08T15:46:22.113Z,4.10
2017-10-08T15:48:50.355Z,3.60
2017-10-08T15:51:19.380Z,2.70
2017-10-08T15:53:47.679Z,3.03
2017-10-08T15:56:15.933Z,2.70
2017-10-08T15:58:44.176Z,2.33
2017-10-08T16:01:12.516Z,3.80
2017-10-08T16:03:40.801Z,2.70
2017-10-08T16:06:09.075Z,2.70
2017-10-08T16:08:37.458Z,4.47
2017-10-08T16:11:05.720Z,4.87
2017-10-08T16:13:34.113Z,3.07
2017-10-08T16:16:02.358Z,3.00
2017-10-08T16:18:31.388Z,3.40
2017-10-08T16:20:59.679Z,3.23
2017-10-08T16:23:27.945Z,4.13
2017-10-08T16:25:56.201Z,3.77
2017-10-08T16:28:24.447Z,3.47
2017-10-08T16:30:52.695Z,4.20
2017-10-08T16:33:21.002Z,4.27
2017-10-08T16:35:49.275Z,3.40
2017-10-08T16:38:17.540Z,6.10
2017-10-08T16:40:45.831Z,5.50
2017-10-08T16:43:14.107Z,3.97
2017-10-08T16:45:42.354Z,3.57
2017-10-08T16:48:11.385Z,3.60
2017-10-08T16:50:39.619Z,4.27
2017-10-08T16:53:07.962Z,3.77
2017-10-08T16:55:36.205Z,3.40
2017-10-08T16:58:05.226Z,3.63
2017-10-08T17:00:33.518Z,3.73
2017-10-08T17:03:01.802Z,3.97
2017-10-08T17:05:30.039Z,2.90
2017-10-08T17:07:59.078Z,4.33
2017-10-08T17:10:27.366Z,11.87
2017-10-08T17:12:55.648Z,6.00
2017-10-08T17:15:23.895Z,11.10
2017-10-08T17:17:52.174Z,6.70
2017-10-08T17:20:21.269Z,5.40
2017-10-08T17:22:50.282Z,11.63
2017-10-08T17:25:18.587Z,7.17
2017-10-08T17:27:46.833Z,4.50
2017-10-08T17:30:15.863Z,5.30
2017-10-08T17:32:44.109Z,3.50
2017-10-08T17:35:13.243Z,4.67
2017-10-08T17:37:41.514Z,5.83
2017-10-08T17:40:09.817Z,3.63
2017-10-08T17:42:38.054Z,3.70
2017-10-08T17:45:07.191Z,4.90
2017-10-08T17:47:35.431Z,6.03
2017-10-08T17:50:04.466Z,5.20
2017-10-08T17:52:32.706Z,4.67
2017-10-08T17:55:01.734Z,5.37
2017-10-08T17:57:30.743Z,5.30
2017-10-08T17:59:59.000Z,9.38
2017-10-08T18:02:27.302Z,6.70
2017-10-08T18:04:56.407Z,7.40
2017-10-08T18:07:24.641Z,4.10
2017-10-08T18:09:53.681Z,5.80
2017-10-08T18:12:21.919Z,5.60
2017-10-08T18:14:50.174Z,7.07
2017-10-08T18:17:18.426Z,6.20
2017-10-08T18:19:46.693Z,5.87
2017-10-08T18:22:14.926Z,5.50
2017-10-08T18:24:43.191Z,4.47
2017-10-08T18:27:11.423Z,4.30
2017-10-08T18:29:40.474Z,3.40
2017-10-08T18:32:08.702Z,2.40
2017-10-08T18:34:37.702Z,2.70
2017-10-08T18:37:05.962Z,2.60
2017-10-08T18:39:35.482Z,2.60
2017-10-08T18:42:04.498Z,2.90
2017-10-08T18:44:32.737Z,2.80
2017-10-08T18:47:00.994Z,2.50
2017-10-08T18:49:29.232Z,2.87
2017-10-08T18:51:58.268Z,2.70
2017-10-08T18:54:26.510Z,3.43
2017-10-08T18:56:55.531Z,2.00
2017-10-08T18:59:23.857Z,1.97
2017-10-08T19:01:52.103Z,2.73
2017-10-08T19:04:20.347Z,2.60
2017-10-08T19:06:49.384Z,2.30
2017-10-08T19:09:17.654Z,4.70
2017-10-08T19:11:45.951Z,2.20
2017-10-08T19:14:14.221Z,3.03
2017-10-08T19:16:42.486Z,5.63
2017-10-08T19:19:11.491Z,3.50
2017-10-08T19:21:39.751Z,2.87
2017-10-08T19:24:08.756Z,5.90
2017-10-08T19:26:37.790Z,2.97
2017-10-08T19:29:06.043Z,3.20
2017-10-08T19:31:35.064Z,2.70
2017-10-08T19:34:03.297Z,5.47
2017-10-08T19:36:32.318Z,3.27
2017-10-08T19:39:00.561Z,4.53
2017-10-08T19:41:30.338Z,2.50
2017-10-08T19:43:58.616Z,2.60
2017-10-08T19:46:26.854Z,2.80
2017-10-08T19:48:55.181Z,2.80
2017-10-08T19:51:23.424Z,2.60
2017-10-08T19:53:52.439Z,2.60
2017-10-08T19:56:20.674Z,3.53
2017-10-08T19:58:48.928Z,2.10
2017-10-08T20:01:17.165Z,2.40
2017-10-08T20:03:46.183Z,5.30
2017-10-08T20:06:14.427Z,5.40
2017-10-08T20:08:42.681Z,2.40
2017-10-08T20:11:10.938Z,3.10
2017-10-08T20:13:39.198Z,3.43
2017-10-08T20:16:07.447Z,2.80
2017-10-08T20:18:36.469Z,4.20
2017-10-08T20:21:05.522Z,2.60
2017-10-08T20:23:33.778Z,3.20
2017-10-08T20:26:02.060Z,7.80
2017-10-08T20:28:30.313Z,3.00
2017-10-08T20:30:59.322Z,3.70
2017-10-08T20:33:28.444Z,3.20
2017-10-08T20:35:56.726Z,4.13
2017-10-08T20:38:25.127Z,5.53
2017-10-08T20:40:53.379Z,5.70
2017-10-08T20:43:21.675Z,3.00
2017-10-08T20:45:49.948Z,7.23
2017-10-08T20:48:18.182Z,5.83
2017-10-08T20:50:47.225Z,3.53
2017-10-08T20:53:15.471Z,3.97
2017-10-08T20:55:44.959Z,4.07
2017-10-08T20:58:13.200Z,4.60
2017-10-08T21:00:41.475Z,4.20
2017-10-08T21:03:09.719Z,4.50
2017-10-08T21:05:37.980Z,3.87
2017-10-08T21:08:06.218Z,3.73
2017-10-08T21:10:34.471Z,3.77
2017-10-08T21:13:03.490Z,3.30
2017-10-08T21:15:31.979Z,3.73
2017-10-08T21:18:00.267Z,4.27
2017-10-08T21:20:28.545Z,4.87
2017-10-08T21:22:56.798Z,5.23
2017-10-08T21:25:25.822Z,6.20
2017-10-08T21:27:54.058Z,5.37
2017-10-08T21:30:23.083Z,5.10
2017-10-08T21:32:51.323Z,4.60
2017-10-08T21:35:20.382Z,6.70
2017-10-08T21:37:48.661Z,5.30
2017-10-08T21:40:16.914Z,5.03
2017-10-08T21:42:45.932Z,5.30
2017-10-08T21:45:14.189Z,5.47
2017-10-08T21:47:43.194Z,6.80
2017-10-08T21:50:12.234Z,6.50
2017-10-08T21:52:40.475Z,5.50
2017-10-08T21:55:09.473Z,6.60
2017-10-08T21:57:37.734Z,6.80
2017-10-08T22:00:06.743Z,9.47
2017-10-08T22:02:35.768Z,6.37
2017-10-08T22:05:04.155Z,5.67
2017-10-08T22:07:32.415Z,7.40
2017-10-08T22:10:00.722Z,6.93
2017-10-08T22:12:28.997Z,8.90
2017-10-08T22:14:57.248Z,6.03
2017-10-08T22:17:26.287Z,6.27
2017-10-08T22:19:54.517Z,7.00
2017-10-08T22:22:23.547Z,8.10
2017-10-08T22:24:51.837Z,7.20
2017-10-08T22:27:20.096Z,7.70
2017-10-08T22:29:49.107Z,8.87
2017-10-08T22:32:17.362Z,8.67
2017-10-08T22:34:47.183Z,10.10
2017-10-08T22:37:16.443Z,6.53
2017-10-08T22:39:44.665Z,7.20
2017-10-08T22:42:13.710Z,10.27
2017-10-08T22:44:41.952Z,8.00
2017-10-08T22:47:10.969Z,9.77
2017-10-08T22:49:39.220Z,9.57
2017-10-08T22:52:08.265Z,8.93
2017-10-08T22:54:36.500Z,8.50
2017-10-08T22:57:05.513Z,7.80
2017-10-08T22:59:33.761Z,7.20
2017-10-08T23:02:02.103Z,8.97
2017-10-08T23:04:30.352Z,7.23
2017-10-08T23:06:59.363Z,8.73
2017-10-08T23:09:27.628Z,9.20
2017-10-08T23:11:56.634Z,9.67
2017-10-08T23:14:25.667Z,8.93
2017-10-08T23:16:53.945Z,10.10
2017-10-08T23:19:22.215Z,8.13
2017-10-08T23:21:50.510Z,8.17
2017-10-08T23:24:18.762Z,7.43
2017-10-08T23:26:47.063Z,12.87
2017-10-08T23:29:15.386Z,7.73
2017-10-08T23:31:43.637Z,12.23
2017-10-08T23:34:11.921Z,13.37
2017-10-08T23:36:40.209Z,10.33
2017-10-08T23:39:08.586Z,7.63
2017-10-08T23:41:42.544Z,9.03
2017-10-08T23:44:11.573Z,8.50
2017-10-08T23:46:39.858Z,11.33
2017-10-08T23:49:08.118Z,8.00
2017-10-08T23:51:37.122Z,7.93
2017-10-08T23:54:05.400Z,8.23
2017-10-08T23:56:34.410Z,9.53
2017-10-08T23:59:02.711Z,8.83
